Terminal Aerodrome Forecast
Issued by NWS

Home | Current Version | Previous Version | Text Only | Print | Product List | Glossary On
Versions: 1 2 3 4 5 6 7 8 9 10 11 12 13 14 15 16 17 18 19 20 21 22 23 24 25
000
FTUS43 KLOT 281142
TAFDPA
TAF
KDPA 281142Z 2812/0112 18011G15KT P6SM OVC015
     FM281400 19012G18KT P6SM OVC015
     FM281600 19012G18KT 6SM -SHRA OVC015
     FM281900 19013G20KT P6SM BKN015
     FM282200 19013G20KT 3SM -TSRA SCT009CB OVC012
     FM010100 22014G22KT 6SM -SHRA BR VCTS SCT009CB OVC012
      TEMPO 0102/0106 2SM TSRA BR BKN008CB
     FM010900 31007KT 3SM -SHRA BR OVC012=

USA.gov is the U.S. government's official web portal to all federal, state and local government web resources and services.